| time (UTC) | temp F | wind direction | speed knots | gust knots | rain 1hr in | rain 24hr in | rain mn in | humidity % | barometer mb |
| 20260508073529 | 48 | 16 | 1.7 | 1.7 | 0.00 | 0.00 | 0.00 | 97 | 1017.2 |
| 20260508071524 | 48 | 339 | 0.0 | 0.0 | 0.00 | 0.00 | 0.00 | 97 | 1017.1 |
| 20260508065510 | 48 | 358 | 2.6 | 2.6 | 0.00 | 0.00 | 0.00 | 97 | 1016.9 |
| 20260508063507 | 48 | 278 | 0.0 | 0.0 | 0.00 | 0.00 | 0.00 | 97 | 1016.7 |
| 20260508061504 | 48 | 309 | 0.0 | 0.0 | 0.00 | 0.00 | 0.00 | 96 | 1016.7 |
| 20260508055504 | 48 | 309 | 0.0 | 0.0 | 0.00 | 0.00 | 0.00 | 97 | 1016.5 |
| 20260508053504 | 48 | 13 | 0.0 | 0.0 | 0.00 | 0.00 | 0.00 | 97 | 1016.5 |
| 20260508051503 | 48 | 347 | 0.0 | 0.0 | 0.00 | 0.00 | 0.00 | 97 | 1016.4 |
| 20260508045448 | 47 | 358 | 0.0 | 0.0 | 0.00 | 0.00 | 0.00 | 98 | 1016.3 |
| 20260508043446 | 47 | 352 | 0.0 | 0.0 | 0.00 | 0.00 | 0.00 | 99 | 1016.2 |
| 20260508041445 | 47 | 356 | 0.0 | 0.0 | 0.00 | 0.00 | 0.00 | 99 | 1015.9 |
| 20260508035444 | 47 | 357 | 1.7 | 1.7 | 0.00 | 0.00 | 0.00 | 99 | 1015.8 |
| 20260508033440 | 47 | 0 | 0.0 | 0.0 | 0.00 | 0.00 | 0.00 | 99 | 1015.7 |
| 20260508031438 | 47 | 341 | 0.0 | 0.0 | 0.00 | 0.00 | 0.00 | 99 | 1015.4 |
| 20260508025436 | 48 | 329 | 0.0 | 0.0 | 0.00 | 0.00 | 0.00 | 99 | 1015.4 |
| 20260508023433 | 48 | 327 | 0.0 | 0.0 | 0.00 | 0.00 | 0.00 | 99 | 1015.4 |
| 20260508021432 | 48 | 331 | 0.0 | 0.0 | 0.00 | 0.00 | 0.00 | 99 | 1015.4 |
| 20260508015430 | 48 | 344 | 0.0 | 0.0 | 0.00 | 0.00 | 0.00 | 99 | 1015.3 |
| 20260508013427 | 48 | 329 | 0.0 | 0.0 | 0.00 | 0.00 | 0.00 | 99 | 1015.3 |
| 20260508011422 | 49 | 258 | 0.0 | 0.0 | 0.00 | 0.00 | 0.00 | 99 | 1015.3 |
| 20260508005409 | 49 | 8 | 1.7 | 1.7 | 0.00 | 0.00 | 0.00 | 99 | 1015.1 |
| 20260508003408 | 49 | 342 | 0.0 | 0.0 | 0.00 | 0.00 | 0.00 | 99 | 1015.1 |
| 20260508001405 | 49 | 335 | 0.0 | 0.0 | 0.00 | 0.00 | 0.00 | 98 | 1015.0 |
| 20260507235353 | 50 | 329 | 0.0 | 0.0 | 0.00 | 0.00 | 0.00 | 98 | 1015.0 |
| 20260507233353 | 50 | 332 | 0.0 | 0.0 | 0.00 | 0.00 | 0.00 | 98 | 1015.0 |
| 20260507231353 | 50 | 313 | 0.0 | 0.0 | 0.00 | 0.00 | 0.00 | 98 | 1015.1 |
| 20260507225340 | 50 | 345 | 0.0 | 0.0 | 0.00 | 0.09 | 0.00 | 99 | 1014.9 |
| 20260507223339 | 50 | 330 | 0.0 | 0.0 | 0.00 | 0.09 | 0.00 | 98 | 1014.9 |
| 20260507221339 | 50 | 321 | 0.0 | 0.0 | 0.00 | 0.09 | 0.00 | 99 | 1014.9 |
| 20260507215338 | 50 | 319 | 0.0 | 0.0 | 0.00 | 0.09 | 0.00 | 99 | 1014.8 |
| 20260507213336 | 51 | 302 | 0.0 | 0.0 | 0.00 | 0.09 | 0.00 | 99 | 1014.7 |
| 20260507211334 | 51 | 343 | 0.0 | 0.0 | 0.00 | 0.09 | 0.00 | 99 | 1014.6 |
| 20260507205330 | 51 | 328 | 0.0 | 0.0 | 0.00 | 0.09 | 0.00 | 99 | 1014.4 |
| 20260507203312 | 52 | 13 | 0.0 | 0.0 | 0.00 | 0.09 | 0.00 | 99 | 1014.3 |
| 20260507201311 | 52 | 309 | 0.0 | 0.0 | 0.00 | 0.09 | 0.00 | 99 | 1014.2 |
| 20260507195310 | 52 | 345 | 0.0 | 0.0 | 0.00 | 0.09 | 0.00 | 99 | 1014.0 |
| 20260507193308 | 53 | 345 | 0.0 | 0.0 | 0.00 | 0.09 | 0.00 | 99 | 1014.0 |
| 20260507191306 | 53 | 338 | 0.0 | 0.0 | 0.00 | 0.09 | 0.00 | 99 | 1013.9 |
| 20260507185307 | 54 | 343 | 0.0 | 0.0 | 0.00 | 0.09 | 0.00 | 99 | 1013.5 |
| 20260507183254 | 54 | 348 | 0.0 | 0.0 | 0.00 | 0.09 | 0.00 | 99 | 1012.9 |
| 20260507181242 | 54 | 342 | 0.0 | 0.0 | 0.00 | 0.09 | 0.00 | 99 | 1012.7 |
| 20260507175241 | 55 | 352 | 0.0 | 0.0 | 0.03 | 0.09 | 0.00 | 99 | 1012.4 |
| 20260507173237 | 55 | 339 | 0.0 | 0.0 | 0.03 | 0.09 | 0.00 | 99 | 1012.5 |
| 20260507171236 | 56 | 327 | 0.0 | 0.0 | 0.04 | 0.09 | 0.00 | 99 | 1012.2 |
| 20260507165210 | 57 | 8 | 0.0 | 0.0 | 0.01 | 0.05 | 0.00 | 99 | 1012.2 |
| 20260507163145 | 57 | 4 | 0.0 | 0.0 | 0.01 | 0.05 | 0.00 | 99 | 1012.0 |
| 20260507161133 | 57 | 336 | 0.0 | 0.0 | 0.00 | 0.03 | 0.00 | 99 | 1011.8 |
| 20260507155057 | 57 | 311 | 0.0 | 0.0 | 0.01 | 0.03 | 0.00 | 99 | 1011.6 |
| 20260507153045 | 58 | 325 | 0.0 | 0.0 | 0.03 | 0.03 | 0.00 | 99 | 1011.4 |
| 20260507151021 | 59 | 1 | 0.0 | 0.0 | 0.03 | 0.03 | 0.00 | 97 | 1011.4 |
| 20260507145009 | 61 | 0 | 0.0 | 0.0 | 0.01 | 0.01 | 0.00 | 88 | 1011.3 |
| 20260507143008 | 63 | 328 | 1.7 | 1.7 | 0.00 | 0.00 | 0.00 | 79 | 1011.4 |
| 20260507140926 | 64 | 345 | 0.0 | 0.0 | 0.00 | 0.00 | 0.00 | 77 | 1011.3 |
| 20260507134924 | 65 | 10 | 0.0 | 0.0 | 0.00 | 0.00 | 0.00 | 78 | 1011.3 |
| 20260507132910 | 65 | 314 | 0.0 | 0.0 | 0.00 | 0.00 | 0.00 | 74 | 1011.3 |
| 20260507130906 | 64 | 128 | 0.0 | 0.0 | 0.00 | 0.00 | 0.00 | 79 | 1011.4 |
| 20260507124838 | 63 | 325 | 0.0 | 0.0 | 0.00 | 0.00 | 0.00 | 81 | 1011.3 |
| 20260507122837 | 63 | 335 | 1.7 | 1.7 | 0.00 | 0.00 | 0.00 | 82 | 1011.4 |
| 20260507120824 | 62 | 160 | 0.0 | 0.0 | 0.00 | 0.00 | 0.00 | 83 | 1011.6 |
| 20260507114746 | 60 | 335 | 0.0 | 0.0 | 0.00 | 0.00 | 0.00 | 86 | 1011.7 |
| 20260507112740 | 60 | 305 | 0.0 | 0.0 | 0.00 | 0.00 | 0.00 | 87 | 1011.6 |
| 20260507110734 | 59 | 269 | 2.6 | 2.6 | 0.00 | 0.00 | 0.00 | 89 | 1011.7 |
| 20260507104730 | 58 | 346 | 0.0 | 0.0 | 0.00 | 0.00 | 0.00 | 91 | 1011.4 |
| 20260507102713 | 58 | 11 | 1.7 | 1.7 | 0.00 | 0.00 | 0.00 | 93 | 1011.2 |
| 20260507100708 | 58 | 321 | 0.0 | 0.0 | 0.00 | 0.00 | 0.00 | 92 | 1010.9 |
| 20260507094704 | 58 | 330 | 0.0 | 0.0 | 0.00 | 0.00 | 0.00 | 91 | 1010.7 |
| 20260507092701 | 57 | 337 | 0.0 | 0.0 | 0.00 | 0.00 | 0.00 | 91 | 1010.4 |
| 20260507090659 | 58 | 335 | 0.0 | 0.0 | 0.00 | 0.00 | 0.00 | 92 | 1010.1 |
| 20260507084652 | 59 | 340 | 0.0 | 0.0 | 0.00 | 0.00 | 0.00 | 91 | 1009.8 |
| 20260507082648 | 60 | 307 | 2.6 | 2.6 | 0.00 | 0.00 | 0.00 | 90 | 1009.3 |
| 20260507080643 | 59 | 345 | 1.7 | 1.7 | 0.00 | 0.00 | 0.00 | 92 | 1009.1 |